AirNav   Air Wisconsin pilot careers
 
 850 users online  

K38 Washington County Veteran's Memorial Airport
Washington, Kansas, USA

GOING TO WASHINGTON?


FAA INFORMATION EFFECTIVE 08 NOVEMBER 2018

Location

FAA Identifier: K38
Lat/Long: 39-44-06.6000N / 097-02-51.3000W
39-44.110000N / 097-02.855000W
39.7351667 / -97.0475833
(estimated)
Elevation: 1436.5 ft. / 437.8 m (surveyed)
Variation: 06E (1990)
From city: 5 miles S of WASHINGTON, KS
Time zone: UTC -6 (UTC -5 during Daylight Saving Time)
Zip code: 66953

Airport Operations

Airport use: Open to the public
Activation date: 01/1980
Control tower: no
ARTCC: KANSAS CITY CENTER
FSS: WICHITA FLIGHT SERVICE STATION
NOTAMs facility: ICT (NOTAM-D service available)
Attendance: UNATNDD
Wind indicator: yes, WIND INDICATOR OTS INDEFLY.
Segmented circle: no
Lights: ACTVT MIRL RY 17/35 - CTAF.
Beacon: white-green (lighted land airport)
Operates sunset to sunrise.

Airport Communications

CTAF: 122.9
  • APCH/DEP SVC PRVDD BY KANSAS CITY ARTCC ON FREQS 127.35/257.975 (MANHATTAN RCAG).

Nearby radio navigation aids

VOR radial/distance  VOR name  Freq  Var
BIEr195/(36.5)BEATRICE VOR110.6007E
MHKr330/39.5MANHATTAN VOR/DME110.2004E

 
NDB name  Hdg/Dist  Freq  Var  ID
CLAY CENTER010/21.936204ECYW -.-. -.-- .--
FAIRBURY162/27.029306EFBY ..-. -... -.--

Airport Services

Parking: tiedowns

Runway Information

Runway 17/35

Dimensions: 3406 x 60 ft. / 1038 x 18 m
Surface: concrete, in good condition
Runway edge lights: medium intensity
Gradient: N.
RUNWAY 17  RUNWAY 35
Latitude: 39-44.390798N39-43.829835N
Longitude: 097-02.853932W097-02.856890W
Elevation: 1436.5 ft.1425.9 ft.
Gradient: 0.3% UP
Traffic pattern: leftleft
Runway heading: 174 magnetic, 180 true354 magnetic, 000 true
Displaced threshold: 220 ft.no
Markings: nonprecision, in good conditionnonprecision, in good condition
Touchdown point: yes, no lightsyes, no lights
Obstructions: 15 ft. road, 300 ft. from runway, 6:1 slope to clear
RWY 17 APPROACH SLOPE 34:1 TO THE DISP THLD.
68 ft. pline, marked, 1562 ft. from runway, 20:1 slope to clear

Airport Ownership and Management from official FAA records

Ownership: Publicly-owned
Owner: WASHINGTON COUNTY
CO CMSNRS, WASH CO COURTHOUSE
WASHINGTON, KS 66968
Phone 785-325-2974
Manager: BRAD FORTENIER
303 C ST.
WASHINGTON, KS 66968
Phone (785) 747-6640

Airport Operational Statistics

Aircraft based on the field: 3
Single engine airplanes: 3
    
Aircraft operations: avg 33/week *
53% local general aviation
47% transient general aviation
* for 12-month period ending 19 September 2018

Additional Remarks

24 HR PHONE AVBL FOR PUBLIC USE WITH PHONE CARD.

Instrument Procedures

NOTE: All procedures below are presented as PDF files. If you need a reader for these files, you should download the free Adobe Reader.

NOT FOR NAVIGATION. Please procure official charts for flight.
FAA instrument procedures published for use from 8 November 2018 at 0901Z to 6 December 2018 at 0900Z.

 
IAPs - Instrument Approach Procedures
RNAV (GPS) RWY 17   download (190KB)
RNAV (GPS) RWY 35   download (201KB)
NOTE: Special Take-Off Minimums/Departure Procedures apply   download

Other nearby airports with instrument procedures:

KMYZ - Marysville Municipal Airport (21 nm E)
KCYW - Clay Center Municipal Airport (21 nm S)
KFBY - Fairbury Municipal Airport (27 nm N)
KRPB - Belleville Municipal Airport (29 nm W)
KCNK - Blosser Municipal Airport (30 nm W)
 
Loc | Ops | Rwys | IFR | FBO | Links
Com | Nav | Svcs | Stats | Notes

Kansas City Aviation Department
 
Area around K38 (Washington County Veteran's Memorial Airport)
 
Road maps at: MapQuest Bing Google
 
Aerial photo
WARNING: Photo may not be current or correct
Aerial photo of K38 (Washington County Veteran's Memorial Airport)
Do you have a better or more recent aerial photo of Washington County Veteran's Memorial Airport that you would like to share? If so, please send us your photo.

 
Sectional chart

 
Airport distance calculator
Flying to Washington County Veteran's Memorial Airport? Find the distance to fly.

From to K38

Sunrise and sunset
Times for 17-Nov-2018
 Local
(UTC-6)
 Zulu
(UTC)
Morning civil twilight06:4712:47
Sunrise07:1613:16
Sunset17:1023:10
Evening civil twilight17:3923:39

Current date and time
Zulu (UTC)  17-Nov-2018 14:15:45
Local (UTC-6)  17-Nov-2018 08:15:45
 
METAR
KMYZ 
21nm E 
171355Z AUTO 01014G22KT 10SM OVC009 00/M01 A3021 RMK AO2
KCNK 
30nm W 
171355Z AUTO 02021G36KT 10SM OVC009 M01/M02 A3020 RMK AO2 PK WND 02037/1302 SLP236 T10061022 $
KHJH 
35nm NW 
171355Z AUTO 03017G26KT 10SM OVC007 M01/M03 A3025 RMK AO2 T10101026
KBIE 
36nm N 
171355Z AUTO 01021G27KT 10SM OVC009 00/M01 A3024 RMK AO2 T00021010
KMHK 
40nm SE 
171352Z 02017G23KT 10SM OVC013 03/00 A3016 RMK AO2 SLP220 T00280000
TAF
KMHK 
40nm SE 
171122Z 1712/1812 36011KT P6SM BKN200 FM171300 01017G24KT P6SM OVC015 FM172200 02015G22KT 6SM -FZDZ BR OVC012 FM180600 01010KT P6SM OVC015 FM181000 01008KT P6SM OVC025
KFRI 
44nm S 
170000Z 1700/1806 18009KT 9999 SKC QNH2992INS BECMG 1703/1704 21009KT 9999 FEW150 QNH2996INS BECMG 1709/1710 34012KT 9999 FEW150 QNH3000INS BECMG 1711/1712 01015G25KT 9999 BKN010 OVC015 QNH3004INS BECMG 1717/1718 02015G25KT 9999 OVC015 QNH3018INS BECMG 1722/1723 02010G15KT 8000 -SHSN OVC015 QNH3024INS TX12/1700Z TN00/1712Z LAST NO AMDS AFT 1700 NEXT 1900
NOTAMs
Click for the latest NOTAMs
NOTAMs are issued by the DoD/FAA and will open in a separate window not controlled by AirNav.

 

 
 

Would you like to see your business listed on this page?

 If your business provides an interesting product or service to pilots, flight crews, aircraft, or users of the Washington County Veteran's Memorial Airport, you should consider listing it here.  To start the listing process, click on the button below
 
Add a business
 

Other Pages about Washington County Veteran's Memorial Airport

Update a link
 
Copyright © AirNav, LLC. All rights reserved. Privacy Policy  Contact